Time;durP1;ratioP1;P1;durP2;ratioP2;P2;SDS_P1;SDS_P2;PMS_P1;PMS_P2;Temp;Humidity;BMP_temperature;BMP_pressure;BME280_temperature;BME280_humidity;BME280_pressure;Samples;Min_cycle;Max_cycle;Signal;HPM_P1;HPM_P2
2023/09/09 00:02:04;;;;;;;;;;;;;;;;;;6351921;28;19911;-81
2023/09/09 00:05:04;;;;;;;;;;;;;;;;;;6352270;28;20384;-79
2023/09/09 00:08:04;;;;;;;;;;;;;;;;;;5964539;28;9999965;-81
2023/09/09 00:11:05;;;;;;;;;;;;;;;;;;6324970;28;20306;-81
2023/09/09 00:14:05;;;;;;;;;;;;;;;;;;6344749;28;20034;-81
2023/09/09 00:17:05;;;;;;;;;;;;;;;;;;6322602;28;19930;-81
2023/09/09 00:20:09;;;;;;;;;;;;;;;;;;6322152;28;19909;-79
2023/09/09 00:23:09;;;;;;;;;;;;;;;;;;6323382;28;19935;-80
2023/09/09 00:26:29;;;;;;;;;;;;;;;;;;6345617;28;20018;-81
2023/09/09 00:29:29;;;;;;;;;;;;;;;;;;6327659;28;19976;-80
2023/09/09 00:32:31;;;;;;;;;;;;;;;;;;6327643;28;19949;-81
2023/09/09 00:35:32;;;;;;;;;;;;;;;;;;6346334;28;20373;-81
2023/09/09 00:38:32;;;;;;;;;;;;;;;;;;6327718;28;20008;-81
2023/09/09 00:41:32;;;;;;;;;;;;;;;;;;6325194;28;19916;-81
2023/09/09 00:44:34;;;;;;;;;;;;;;;;;;6345456;28;19916;-81
2023/09/09 00:47:34;;;;;;;;;;;;;;;;;;6346284;28;19981;-80
2023/09/09 00:50:34;;;;;;;;;;;;;;;;;;6326692;28;19912;-81
2023/09/09 00:53:34;;;;;;;;;;;;;;;;;;6328087;28;19940;-81
2023/09/09 00:56:34;;;;;;;;;;;;;;;;;;6323428;28;19912;-81
2023/09/09 00:59:35;;;;;;;;;;;;;;;;;;6334020;27;20367;-80
2023/09/09 01:02:35;;;;;;;;;;;;;;;;;;6351570;27;20048;-81
2023/09/09 01:05:36;;;;;;;;;;;;;;;;;;6353081;28;19907;-81
2023/09/09 01:08:37;;;;;;;;;;;;;;;;;;6352394;28;19954;-81
2023/09/09 01:11:38;;;;;;;;;;;;;;;;;;6368988;28;20449;-81
2023/09/09 01:14:38;;;;;;;;;;;;;;;;;;6336556;28;19918;-81
2023/09/09 01:17:39;;;;;;;;;;;;;;;;;;6361173;28;19911;-81
2023/09/09 01:20:39;;;;;;;;;;;;;;;;;;6370087;28;20334;-81
2023/09/09 01:23:39;;;;;;;;;;;;;;;;;;6366742;28;19917;-81
2023/09/09 01:26:39;;;;;;;;;;;;;;;;;;6365760;28;19915;-80
2023/09/09 01:29:40;;;;;;;;;;;;;;;;;;6365159;28;20018;-81
2023/09/09 01:32:41;;;;;;;;;;;;;;;;;;6351340;28;19994;-81
2023/09/09 01:35:42;;;;;;;;;;;;;;;;;;6361463;27;20014;-80
2023/09/09 01:38:44;;;;;;;;;;;;;;;;;;6367201;27;20349;-81
2023/09/09 01:41:44;;;;;;;;;;;;;;;;;;6351343;27;19964;-81
2023/09/09 01:44:44;;;;;;;;;;;;;;;;;;6340388;27;19916;-80
2023/09/09 01:47:44;;;;;;;;;;;;;;;;;;6356671;27;19939;-80
2023/09/09 01:50:45;;;;;;;;;;;;;;;;;;6355059;27;19991;-80
2023/09/09 01:53:45;;;;;;;;;;;;;;;;;;6348926;27;19918;-80
2023/09/09 01:56:45;;;;;;;;;;;;;;;;;;6368841;27;19912;-81
2023/09/09 01:59:45;;;;;;;;;;;;;;;;;;6313771;28;20027;-81
2023/09/09 02:02:46;;;;;;;;;;;;;;;;;;6322208;28;20010;-81
2023/09/09 02:05:46;;;;;;;;;;;;;;;;;;6329096;28;19940;-81
2023/09/09 02:08:46;;;;;;;;;;;;;;;;;;6325365;28;19927;-81
2023/09/09 02:11:46;;;;;;;;;;;;;;;;;;6338839;28;19916;-81
2023/09/09 02:14:46;;;;;;;;;;;;;;;;;;6329564;28;19923;-81
2023/09/09 02:17:46;;;;;;;;;;;;;;;;;;6313423;28;20400;-82
2023/09/09 02:20:48;;;;;;;;;;;;;;;;;;6323108;28;20397;-81
2023/09/09 02:23:48;;;;;;;;;;;;;;;;;;6296962;28;20022;-82
2023/09/09 02:26:48;;;;;;;;;;;;;;;;;;6294363;28;19973;-82
2023/09/09 02:29:48;;;;;;;;;;;;;;;;;;6282365;28;19913;-81
2023/09/09 02:32:49;;;;;;;;;;;;;;;;;;6311412;28;19935;-82
2023/09/09 02:35:49;;;;;;;;;;;;;;;;;;6281141;28;20329;-83
2023/09/09 02:38:50;;;;;;;;;;;;;;;;;;6300012;28;20410;-81
2023/09/09 02:41:50;;;;;;;;;;;;;;;;;;6303299;28;19912;-81
2023/09/09 02:44:50;;;;;;;;;;;;;;;;;;6319230;28;20010;-82
2023/09/09 02:47:50;;;;;;;;;;;;;;;;;;6320071;28;19916;-81
2023/09/09 02:50:51;;;;;;;;;;;;;;;;;;6322651;28;19936;-82
2023/09/09 02:53:51;;;;;;;;;;;;;;;;;;6320759;28;20014;-81
2023/09/09 02:56:52;;;;;;;;;;;;;;;;;;6323887;28;20032;-81
2023/09/09 02:59:52;;;;;;;;;;;;;;;;;;6333871;28;19920;-81
2023/09/09 03:02:53;;;;;;;;;;;;;;;;;;6331025;28;20244;-81
2023/09/09 03:05:53;;;;;;;;;;;;;;;;;;6348575;27;20366;-81
2023/09/09 03:08:53;;;;;;;;;;;;;;;;;;6370382;27;20344;-81
2023/09/09 03:11:54;;;;;;;;;;;;;;;;;;6372594;27;19915;-81
2023/09/09 03:14:54;;;;;;;;;;;;;;;;;;6346011;27;19918;-81
2023/09/09 03:17:54;;;;;;;;;;;;;;;;;;6351331;27;20011;-82
2023/09/09 03:20:54;;;;;;;;;;;;;;;;;;6333128;28;20060;-82
2023/09/09 03:23:54;;;;;;;;;;;;;;;;;;6340709;27;19970;-83
2023/09/09 03:26:54;;;;;;;;;;;;;;;;;;6354701;27;20014;-82
2023/09/09 03:29:54;;;;;;;;;;;;;;;;;;6372923;27;19912;-82
2023/09/09 03:32:56;;;;;;;;;;;;;;;;;;6371515;27;20007;-81
2023/09/09 03:35:58;;;;;;;;;;;;;;;;;;6371951;27;19915;-81
2023/09/09 03:39:03;;;;;;;;;;;;;;;;;;6370091;27;19912;-81
2023/09/09 03:42:03;;;;;;;;;;;;;;;;;;6340427;27;19916;-80
2023/09/09 03:45:03;;;;;;;;;;;;;;;;;;6364919;27;19923;-81
2023/09/09 03:48:07;;;;;;;;;;;;;;;;;;6371756;27;20388;-80
2023/09/09 03:51:07;;;;;;;;;;;;;;;;;;6370170;27;19915;-81
2023/09/09 03:54:07;;;;;;;;;;;;;;;;;;6351754;27;20011;-80
2023/09/09 03:57:07;;;;;;;;;;;;;;;;;;6353777;27;19923;-81
2023/09/09 04:00:09;;;;;;;;;;;;;;;;;;6366142;27;19931;-80
2023/09/09 04:03:09;;;;;;;;;;;;;;;;;;6370754;27;19919;-80
2023/09/09 04:06:09;;;;;;;;;;;;;;;;;;6341878;27;19955;-80
2023/09/09 04:09:09;;;;;;;;;;;;;;;;;;6367090;27;19995;-80
2023/09/09 04:12:11;;;;;;;;;;;;;;;;;;6377753;27;20070;-80
2023/09/09 04:15:11;;;;;;;;;;;;;;;;;;6370801;27;20017;-80
2023/09/09 04:18:12;;;;;;;;;;;;;;;;;;6358400;27;19964;-79
2023/09/09 04:21:12;;;;;;;;;;;;;;;;;;6389092;27;19919;-80
2023/09/09 04:24:12;;;;;;;;;;;;;;;;;;6397851;27;19950;-80
2023/09/09 04:27:12;;;;;;;;;;;;;;;;;;6398461;27;19915;-80
2023/09/09 04:30:13;;;;;;;;;;;;;;;;;;6382699;27;19915;-80
2023/09/09 04:33:13;;;;;;;;;;;;;;;;;;6364614;27;20377;-80
2023/09/09 04:36:13;;;;;;;;;;;;;;;;;;6384633;27;19912;-80
2023/09/09 04:39:16;;;;;;;;;;;;;;;;;;6360535;27;19962;-80
2023/09/09 04:42:18;;;;;;;;;;;;;;;;;;6367747;27;19922;-79
2023/09/09 04:45:19;;;;;;;;;;;;;;;;;;6384494;27;19943;-82
2023/09/09 04:48:19;;;;;;;;;;;;;;;;;;6380350;27;20004;-81
2023/09/09 04:51:19;;;;;;;;;;;;;;;;;;6365437;27;19911;-84
2023/09/09 04:54:19;;;;;;;;;;;;;;;;;;6376333;27;19916;-83
2023/09/09 04:57:19;;;;;;;;;;;;;;;;;;6386067;27;20272;-83
2023/09/09 05:00:19;;;;;;;;;;;;;;;;;;6386023;27;19920;-83
2023/09/09 05:03:19;;;;;;;;;;;;;;;;;;6370918;27;19982;-84
2023/09/09 05:06:20;;;;;;;;;;;;;;;;;;6369251;28;19987;-83
2023/09/09 05:09:20;;;;;;;;;;;;;;;;;;6398010;27;19972;-84
2023/09/09 05:12:20;;;;;;;;;;;;;;;;;;6389485;28;19923;-83
2023/09/09 05:15:20;;;;;;;;;;;;;;;;;;6382851;28;19903;-83
2023/09/09 05:18:21;;;;;;;;;;;;;;;;;;6400079;28;19923;-83
2023/09/09 05:21:21;;;;;;;;;;;;;;;;;;6399488;28;19927;-83
2023/09/09 05:24:22;;;;;;;;;;;;;;;;;;6375891;28;19930;-82
2023/09/09 05:27:22;;;;;;;;;;;;;;;;;;6387388;28;19959;-82
2023/09/09 05:30:22;;;;;;;;;;;;;;;;;;6390070;28;19976;-82
2023/09/09 05:33:24;;;;;;;;;;;;;;;;;;6394542;28;19947;-82
2023/09/09 05:36:24;;;;;;;;;;;;;;;;;;6392275;28;19975;-82
2023/09/09 05:39:24;;;;;;;;;;;;;;;;;;6365383;28;20002;-82
2023/09/09 05:42:24;;;;;;;;;;;;;;;;;;6355628;28;19941;-82
2023/09/09 05:45:25;;;;;;;;;;;;;;;;;;6361455;28;19915;-83
2023/09/09 05:48:25;;;;;;;;;;;;;;;;;;6358158;28;19915;-82
2023/09/09 05:51:25;;;;;;;;;;;;;;;;;;6387555;28;19900;-82
2023/09/09 05:54:25;;;;;;;;;;;;;;;;;;6375345;28;19911;-84
2023/09/09 05:57:25;;;;;;;;;;;;;;;;;;6355069;28;19911;-80
2023/09/09 06:00:26;;;;;;;;;;;;;;;;;;6371283;28;20293;-80
2023/09/09 06:03:26;;;;;;;;;;;;;;;;;;6366558;28;19911;-80
2023/09/09 06:06:26;;;;;;;;;;;;;;;;;;6348853;28;19999;-80
2023/09/09 06:09:26;;;;;;;;;;;;;;;;;;6370863;28;19916;-80
2023/09/09 06:12:27;;;;;;;;;;;;;;;;;;6359485;28;19990;-80
2023/09/09 06:15:27;;;;;;;;;;;;;;;;;;6372229;28;19931;-79
2023/09/09 06:18:28;;;;;;;;;;;;;;;;;;6371594;28;19912;-80
2023/09/09 06:21:28;;;;;;;;;;;;;;;;;;6371615;27;19911;-78
2023/09/09 06:24:28;;;;;;;;;;;;;;;;;;6376245;27;19915;-79
2023/09/09 06:27:29;;;;;;;;;;;;;;;;;;6378695;27;20323;-80
2023/09/09 06:30:29;;;;;;;;;;;;;;;;;;6358598;27;19919;-80
2023/09/09 06:33:29;;;;;;;;;;;;;;;;;;6388697;27;19979;-80
2023/09/09 06:36:29;;;;;;;;;;;;;;;;;;6399184;27;19915;-81
2023/09/09 06:39:30;;;;;;;;;;;;;;;;;;6391480;27;19989;-81
2023/09/09 06:42:31;;;;;;;;;;;;;;;;;;6367606;27;19911;-81
2023/09/09 06:45:33;;;;;;;;;;;;;;;;;;6387097;27;19912;-80
2023/09/09 06:48:34;;;;;;;;;;;;;;;;;;6384010;27;19919;-81
2023/09/09 06:51:34;;;;;;;;;;;;;;;;;;6387168;27;19908;-81
2023/09/09 06:54:35;;;;;;;;;;;;;;;;;;6379042;27;19915;-79
2023/09/09 06:57:35;;;;;;;;;;;;;;;;;;6384806;27;19922;-82
2023/09/09 07:00:35;;;;;;;;;;;;;;;;;;6356753;28;19920;-81
2023/09/09 07:03:36;;;;;;;;;;;;;;;;;;6352311;28;19956;-81
2023/09/09 07:06:37;;;;;;;;;;;;;;;;;;6339974;28;19923;-83
2023/09/09 07:09:37;;;;;;;;;;;;;;;;;;6331965;28;19924;-83
2023/09/09 07:12:37;;;;;;;;;;;;;;;;;;6340556;28;20294;-82
2023/09/09 07:15:37;;;;;;;;;;;;;;;;;;6336223;28;19916;-82
2023/09/09 07:18:38;;;;;;;;;;;;;;;;;;6343773;28;19927;-79
2023/09/09 07:21:38;;;;;;;;;;;;;;;;;;6330895;28;19915;-80
2023/09/09 07:24:38;;;;;;;;;;;;;;;;;;6331270;28;19908;-80
2023/09/09 07:27:38;;;;;;;;;;;;;;;;;;6348982;28;19982;-80
2023/09/09 07:30:39;;;;;;;;;;;;;;;;;;6338640;28;20346;-79
2023/09/09 07:33:39;;;;;;;;;;;;;;;;;;6347006;28;19923;-80
2023/09/09 07:36:39;;;;;;;;;;;;;;;;;;6346983;28;20018;-80
2023/09/09 07:39:39;;;;;;;;;;;;;;;;;;6342829;28;19909;-81
2023/09/09 07:42:40;;;;;;;;;;;;;;;;;;6340967;28;19916;-81
2023/09/09 07:45:40;;;;;;;;;;;;;;;;;;6347204;28;19961;-82
2023/09/09 07:48:41;;;;;;;;;;;;;;;;;;6338826;28;19915;-80
2023/09/09 07:51:41;;;;;;;;;;;;;;;;;;6326132;28;19912;-80
2023/09/09 07:54:41;;;;;;;;;;;;;;;;;;6346741;28;19963;-81
2023/09/09 07:57:41;;;;;;;;;;;;;;;;;;6343292;28;19916;-80
2023/09/09 08:00:42;;;;;;;;;;;;;;;;;;6319219;28;19955;-80
2023/09/09 08:03:42;;;;;;;;;;;;;;;;;;6345928;28;20030;-82
2023/09/09 08:06:42;;;;;;;;;;;;;;;;;;6345046;28;19940;-80
2023/09/09 08:09:42;;;;;;;;;;;;;;;;;;6340784;28;20289;-80
2023/09/09 08:12:44;;;;;;;;;;;;;;;;;;6327288;28;20252;-82
2023/09/09 08:15:44;;;;;;;;;;;;;;;;;;6338919;28;19912;-81
2023/09/09 08:18:44;;;;;;;;;;;;;;;;;;6347085;28;19984;-81
2023/09/09 08:21:45;;;;;;;;;;;;;;;;;;6341243;28;19915;-81
2023/09/09 08:24:45;;;;;;;;;;;;;;;;;;6338821;28;19915;-81
2023/09/09 08:27:45;;;;;;;;;;;;;;;;;;6321731;28;19916;-81
2023/09/09 08:30:45;;;;;;;;;;;;;;;;;;6333520;28;19908;-80
2023/09/09 08:33:45;;;;;;;;;;;;;;;;;;5986829;28;9999608;-82
2023/09/09 08:36:45;;;;;;;;;;;;;;;;;;6344442;28;19912;-81
2023/09/09 08:39:47;;;;;;;;;;;;;;;;;;6344771;28;20328;-80
2023/09/09 08:42:48;;;;;;;;;;;;;;;;;;6346041;28;20142;-80
2023/09/09 08:45:48;;;;;;;;;;;;;;;;;;6340229;28;19915;-81
2023/09/09 08:48:48;;;;;;;;;;;;;;;;;;6323311;28;19950;-81
2023/09/09 08:51:48;;;;;;;;;;;;;;;;;;6346223;28;19978;-80
2023/09/09 08:54:49;;;;;;;;;;;;;;;;;;6348141;28;20319;-81
2023/09/09 08:57:49;;;;;;;;;;;;;;;;;;6347092;28;19912;-81
2023/09/09 09:00:50;;;;;;;;;;;;;;;;;;5951820;28;9999719;-80
2023/09/09 09:03:50;;;;;;;;;;;;;;;;;;6310076;28;20276;-81
2023/09/09 09:06:52;;;;;;;;;;;;;;;;;;6307671;28;19923;-81
2023/09/09 09:09:53;;;;;;;;;;;;;;;;;;6310352;28;19912;-81
2023/09/09 09:12:53;;;;;;;;;;;;;;;;;;6317686;28;20354;-80
2023/09/09 09:15:53;;;;;;;;;;;;;;;;;;6313162;28;19969;-79
2023/09/09 09:18:54;;;;;;;;;;;;;;;;;;6313656;28;19916;-79
2023/09/09 09:21:54;;;;;;;;;;;;;;;;;;6313126;28;20350;-80
2023/09/09 09:24:54;;;;;;;;;;;;;;;;;;6306981;28;20163;-81
2023/09/09 09:27:54;;;;;;;;;;;;;;;;;;6305888;28;19920;-80
2023/09/09 09:30:54;;;;;;;;;;;;;;;;;;6309152;28;19912;-80
2023/09/09 09:33:56;;;;;;;;;;;;;;;;;;6315376;28;19988;-80
2023/09/09 09:36:56;;;;;;;;;;;;;;;;;;6318535;28;19919;-81
2023/09/09 09:39:56;;;;;;;;;;;;;;;;;;6318313;28;19955;-78
2023/09/09 09:42:56;;;;;;;;;;;;;;;;;;6309519;28;19981;-79
2023/09/09 09:45:56;;;;;;;;;;;;;;;;;;6296315;28;24311;-79
2023/09/09 09:48:56;;;;;;;;;;;;;;;;;;6310621;28;19932;-80
2023/09/09 09:51:57;;;;;;;;;;;;;;;;;;6319304;28;19916;-79
2023/09/09 09:54:57;;;;;;;;;;;;;;;;;;6317735;28;20377;-79
2023/09/09 09:57:57;;;;;;;;;;;;;;;;;;6317827;28;19918;-79
2023/09/09 10:00:57;;;;;;;;;;;;;;;;;;6359577;27;20007;-79
2023/09/09 10:03:58;;;;;;;;;;;;;;;;;;6375371;27;19922;-80
2023/09/09 10:06:58;;;;;;;;;;;;;;;;;;6368023;27;20007;-80
2023/09/09 10:09:59;;;;;;;;;;;;;;;;;;6375069;27;19942;-80
2023/09/09 10:13:01;;;;;;;;;;;;;;;;;;6371290;27;19939;-80
2023/09/09 10:16:01;;;;;;;;;;;;;;;;;;6372299;27;19918;-79
2023/09/09 10:19:01;;;;;;;;;;;;;;;;;;6351115;27;19916;-79
2023/09/09 10:22:02;;;;;;;;;;;;;;;;;;6375650;27;20369;-80
2023/09/09 10:25:04;;;;;;;;;;;;;;;;;;6357899;27;19931;-79
2023/09/09 10:28:04;;;;;;;;;;;;;;;;;;6356542;27;19932;-79
2023/09/09 10:31:04;;;;;;;;;;;;;;;;;;6372411;27;19919;-79
2023/09/09 10:34:05;;;;;;;;;;;;;;;;;;6374794;27;19980;-80
2023/09/09 10:37:05;;;;;;;;;;;;;;;;;;6356147;27;19912;-78
2023/09/09 10:40:07;;;;;;;;;;;;;;;;;;6375505;27;19934;-79
2023/09/09 10:43:07;;;;;;;;;;;;;;;;;;6350284;27;20010;-79
2023/09/09 10:46:07;;;;;;;;;;;;;;;;;;6352793;27;19980;-79
2023/09/09 10:49:07;;;;;;;;;;;;;;;;;;6348267;27;20018;-79
2023/09/09 10:52:07;;;;;;;;;;;;;;;;;;6357171;27;20358;-79
2023/09/09 10:55:09;;;;;;;;;;;;;;;;;;6353481;27;19923;-78
2023/09/09 10:58:09;;;;;;;;;;;;;;;;;;6365727;27;20373;-84
2023/09/09 11:01:09;;;;;;;;;;;;;;;;;;6376971;27;19921;-80
2023/09/09 11:04:09;;;;;;;;;;;;;;;;;;6019644;27;10000482;-83
2023/09/09 11:07:09;;;;;;;;;;;;;;;;;;6387577;27;19911;-83
2023/09/09 11:10:10;;;;;;;;;;;;;;;;;;6400549;27;19915;-85
2023/09/09 11:13:10;;;;;;;;;;;;;;;;;;6372179;27;19915;-86
2023/09/09 11:16:10;;;;;;;;;;;;;;;;;;6349179;27;19915;-85
2023/09/09 11:19:10;;;;;;;;;;;;;;;;;;6381674;27;19938;-86
2023/09/09 11:22:11;;;;;;;;;;;;;;;;;;6352084;27;19911;-85
2023/09/09 11:25:11;;;;;;;;;;;;;;;;;;6371644;27;19911;-85
2023/09/09 11:28:11;;;;;;;;;;;;;;;;;;6356026;27;19923;-84
2023/09/09 11:31:11;;;;;;;;;;;;;;;;;;6346241;28;19965;-85
2023/09/09 11:34:12;;;;;;;;;;;;;;;;;;6334659;28;20412;-87
2023/09/09 11:37:13;;;;;;;;;;;;;;;;;;6352657;27;20282;-88
2023/09/09 11:40:13;;;;;;;;;;;;;;;;;;6335464;28;19912;-88
2023/09/09 11:43:13;;;;;;;;;;;;;;;;;;6348726;27;19916;-87
2023/09/09 11:46:13;;;;;;;;;;;;;;;;;;6353071;27;20254;-75
2023/09/09 11:49:15;;;;;;;;;;;;;;;;;;6353624;27;19962;-74
2023/09/09 11:52:16;;;;;;;;;;;;;;;;;;6345590;27;20023;-74
2023/09/09 11:55:16;;;;;;;;;;;;;;;;;;6365958;27;20019;-75
2023/09/09 11:58:16;;;;;;;;;;;;;;;;;;6372613;27;19912;-74
2023/09/09 12:01:16;;;;;;;;;;;;;;;;;;6364655;27;19927;-74
2023/09/09 12:04:16;;;;;;;;;;;;;;;;;;6347509;27;19952;-73
2023/09/09 12:07:18;;;;;;;;;;;;;;;;;;6371163;27;19907;-73
2023/09/09 12:10:19;;;;;;;;;;;;;;;;;;6360042;27;19919;-74
2023/09/09 12:13:19;;;;;;;;;;;;;;;;;;6368016;27;19968;-73
2023/09/09 12:16:19;;;;;;;;;;;;;;;;;;6361027;27;19912;-74
2023/09/09 12:19:21;;;;;;;;;;;;;;;;;;6349475;27;19923;-74
2023/09/09 12:22:21;;;;;;;;;;;;;;;;;;6368648;27;19919;-74
2023/09/09 12:25:21;;;;;;;;;;;;;;;;;;6370378;27;19912;-74
2023/09/09 12:28:21;;;;;;;;;;;;;;;;;;6372379;27;20226;-74
2023/09/09 12:31:21;;;;;;;;;;;;;;;;;;6360798;27;19912;-74
2023/09/09 12:34:21;;;;;;;;;;;;;;;;;;6347961;27;19911;-75
2023/09/09 12:37:22;;;;;;;;;;;;;;;;;;6370305;27;19988;-74
2023/09/09 12:40:23;;;;;;;;;;;;;;;;;;6372216;27;20059;-74
2023/09/09 12:43:26;;;;;;;;;;;;;;;;;;6367249;27;19919;-74
2023/09/09 12:46:27;;;;;;;;;;;;;;;;;;6345181;27;19918;-74
2023/09/09 12:49:28;;;;;;;;;;;;;;;;;;6348774;27;20337;-74
2023/09/09 12:52:28;;;;;;;;;;;;;;;;;;6360950;27;20301;-73
2023/09/09 12:55:30;;;;;;;;;;;;;;;;;;6352185;27;20380;-88
2023/09/09 12:58:30;;;;;;;;;;;;;;;;;;6374460;27;19998;-89
2023/09/09 13:01:30;;;;;;;;;;;;;;;;;;6374341;27;19930;-86
2023/09/09 13:04:31;;;;;;;;;;;;;;;;;;6376269;27;19935;-89
2023/09/09 13:07:31;;;;;;;;;;;;;;;;;;6375182;27;19912;-88
2023/09/09 13:10:31;;;;;;;;;;;;;;;;;;6373700;28;20326;-89
2023/09/09 13:13:31;;;;;;;;;;;;;;;;;;6355895;28;19911;-89
2023/09/09 13:16:31;;;;;;;;;;;;;;;;;;6380588;28;19908;-88
2023/09/09 13:19:32;;;;;;;;;;;;;;;;;;6378610;28;19908;-92
2023/09/09 13:22:32;;;;;;;;;;;;;;;;;;6384605;28;19988;-90
2023/09/09 13:25:32;;;;;;;;;;;;;;;;;;6399551;28;19983;-90
2023/09/09 13:28:32;;;;;;;;;;;;;;;;;;6376379;28;19919;-90
2023/09/09 13:31:32;;;;;;;;;;;;;;;;;;6377603;27;19955;-90
2023/09/09 13:34:33;;;;;;;;;;;;;;;;;;6379806;27;20052;-90
2023/09/09 13:37:33;;;;;;;;;;;;;;;;;;6382112;27;19918;-88
2023/09/09 13:40:33;;;;;;;;;;;;;;;;;;6348153;28;19908;-89
2023/09/09 13:43:33;;;;;;;;;;;;;;;;;;6378787;27;19919;-90
2023/09/09 13:46:34;;;;;;;;;;;;;;;;;;6370045;27;19977;-90
2023/09/09 13:49:35;;;;;;;;;;;;;;;;;;6364472;27;19978;-91
2023/09/09 13:52:36;;;;;;;;;;;;;;;;;;6357445;27;20333;-88
2023/09/09 13:55:36;;;;;;;;;;;;;;;;;;6369719;27;19979;-90
2023/09/09 13:58:36;;;;;;;;;;;;;;;;;;6354418;28;20362;-89
2023/09/09 14:01:36;;;;;;;;;;;;;;;;;;6360129;27;19931;-88
2023/09/09 14:04:37;;;;;;;;;;;;;;;;;;6376384;27;19911;-90
2023/09/09 14:07:37;;;;;;;;;;;;;;;;;;6382183;27;20021;-90
2023/09/09 14:10:38;;;;;;;;;;;;;;;;;;6381220;27;19938;-90
2023/09/09 14:13:38;;;;;;;;;;;;;;;;;;6362044;27;19907;-91
2023/09/09 14:16:39;;;;;;;;;;;;;;;;;;6366510;27;19911;-89
2023/09/09 14:19:39;;;;;;;;;;;;;;;;;;6339655;27;20038;-90
2023/09/09 14:22:40;;;;;;;;;;;;;;;;;;6375577;27;20399;-90
2023/09/09 14:25:40;;;;;;;;;;;;;;;;;;6366034;27;19912;-90
2023/09/09 14:28:41;;;;;;;;;;;;;;;;;;6380532;27;19934;-91
2023/09/09 14:31:41;;;;;;;;;;;;;;;;;;6377356;27;20357;-89
2023/09/09 14:34:41;;;;;;;;;;;;;;;;;;6378470;27;19956;-89
2023/09/09 14:37:41;;;;;;;;;;;;;;;;;;6378143;27;20389;-91
2023/09/09 14:40:41;;;;;;;;;;;;;;;;;;6379187;27;19911;-88
2023/09/09 14:43:41;;;;;;;;;;;;;;;;;;6366130;27;19907;-89
2023/09/09 14:46:42;;;;;;;;;;;;;;;;;;6376827;27;19918;-88
2023/09/09 14:49:43;;;;;;;;;;;;;;;;;;6363361;27;19984;-89
2023/09/09 14:52:43;;;;;;;;;;;;;;;;;;6377874;27;20300;-89
2023/09/09 14:55:43;;;;;;;;;;;;;;;;;;6378321;27;20187;-88
2023/09/09 14:58:43;;;;;;;;;;;;;;;;;;6388895;27;19926;-89
2023/09/09 15:01:43;;;;;;;;;;;;;;;;;;6387715;27;19934;-88
2023/09/09 15:04:43;;;;;;;;;;;;;;;;;;6389842;27;19907;-83
2023/09/09 15:07:43;;;;;;;;;;;;;;;;;;6371562;27;19918;-81
2023/09/09 15:10:44;;;;;;;;;;;;;;;;;;6378716;27;19918;-82
2023/09/09 15:13:44;;;;;;;;;;;;;;;;;;6400092;27;19911;-82
2023/09/09 15:16:44;;;;;;;;;;;;;;;;;;6371577;28;19896;-81
2023/09/09 15:19:45;;;;;;;;;;;;;;;;;;6374869;28;19920;-84
2023/09/09 15:22:45;;;;;;;;;;;;;;;;;;6349945;27;20365;-82
2023/09/09 15:25:45;;;;;;;;;;;;;;;;;;6399946;27;19922;-83
2023/09/09 15:28:45;;;;;;;;;;;;;;;;;;6381230;27;19923;-84
2023/09/09 15:31:45;;;;;;;;;;;;;;;;;;6394752;27;19918;-84
2023/09/09 15:34:45;;;;;;;;;;;;;;;;;;6375088;27;19911;-84
2023/09/09 15:37:45;;;;;;;;;;;;;;;;;;6374780;27;20404;-83
2023/09/09 15:40:45;;;;;;;;;;;;;;;;;;6375816;27;19934;-84
2023/09/09 15:43:46;;;;;;;;;;;;;;;;;;6377056;27;19908;-84
2023/09/09 15:46:46;;;;;;;;;;;;;;;;;;6371601;27;20361;-83
2023/09/09 15:49:46;;;;;;;;;;;;;;;;;;6354536;27;19915;-84
2023/09/09 15:52:46;;;;;;;;;;;;;;;;;;6373503;27;19911;-83
2023/09/09 15:55:46;;;;;;;;;;;;;;;;;;6357174;27;20006;-83
2023/09/09 15:58:47;;;;;;;;;;;;;;;;;;6353412;27;19956;-83
2023/09/09 16:01:47;;;;;;;;;;;;;;;;;;6357815;27;19919;-84
2023/09/09 16:04:47;;;;;;;;;;;;;;;;;;6368133;27;19944;-83
2023/09/09 16:07:49;;;;;;;;;;;;;;;;;;6357771;27;19911;-83
2023/09/09 16:10:49;;;;;;;;;;;;;;;;;;6358402;27;20018;-85
2023/09/09 16:13:49;;;;;;;;;;;;;;;;;;6369045;27;19934;-82
2023/09/09 16:16:52;;;;;;;;;;;;;;;;;;6378466;27;19964;-83
2023/09/09 16:19:52;;;;;;;;;;;;;;;;;;6369488;27;19919;-84
2023/09/09 16:22:53;;;;;;;;;;;;;;;;;;6367549;27;19964;-83
2023/09/09 16:25:53;;;;;;;;;;;;;;;;;;6395625;27;19939;-84
2023/09/09 16:28:55;;;;;;;;;;;;;;;;;;6389815;27;19922;-83
2023/09/09 16:31:55;;;;;;;;;;;;;;;;;;6361970;27;19911;-80
2023/09/09 16:34:55;;;;;;;;;;;;;;;;;;6381282;27;19912;-82
2023/09/09 16:37:55;;;;;;;;;;;;;;;;;;6377860;27;19912;-81
2023/09/09 16:40:55;;;;;;;;;;;;;;;;;;6374288;27;19915;-81
2023/09/09 16:43:55;;;;;;;;;;;;;;;;;;6345450;27;19907;-81
2023/09/09 16:46:56;;;;;;;;;;;;;;;;;;6366699;27;19970;-81
2023/09/09 16:49:56;;;;;;;;;;;;;;;;;;6361309;27;20014;-80
2023/09/09 16:52:56;;;;;;;;;;;;;;;;;;6343668;27;20392;-80
2023/09/09 16:55:56;;;;;;;;;;;;;;;;;;6346269;27;19969;-79
2023/09/09 16:58:57;;;;;;;;;;;;;;;;;;6373298;27;20341;-80
2023/09/09 17:01:57;;;;;;;;;;;;;;;;;;6366468;27;19959;-81
2023/09/09 17:04:57;;;;;;;;;;;;;;;;;;6371349;27;19989;-79
2023/09/09 17:07:57;;;;;;;;;;;;;;;;;;6367324;27;20309;-80
2023/09/09 17:10:57;;;;;;;;;;;;;;;;;;6366130;27;19919;-80
2023/09/09 17:13:58;;;;;;;;;;;;;;;;;;6375272;28;20285;-80
2023/09/09 17:16:58;;;;;;;;;;;;;;;;;;6345296;28;19951;-79
2023/09/09 17:19:59;;;;;;;;;;;;;;;;;;6364637;28;19928;-81
2023/09/09 17:22:59;;;;;;;;;;;;;;;;;;6348167;28;19955;-81
2023/09/09 17:25:59;;;;;;;;;;;;;;;;;;6350114;28;21162;-80
2023/09/09 17:29:01;;;;;;;;;;;;;;;;;;6354873;28;19938;-81
2023/09/09 17:32:01;;;;;;;;;;;;;;;;;;6339142;28;20378;-80
2023/09/09 17:35:01;;;;;;;;;;;;;;;;;;6385415;28;19995;-79
2023/09/09 17:38:02;;;;;;;;;;;;;;;;;;6369977;28;19940;-79
2023/09/09 17:41:02;;;;;;;;;;;;;;;;;;6341472;28;19923;-81
2023/09/09 17:44:03;;;;;;;;;;;;;;;;;;6360353;28;19994;-81
2023/09/09 17:47:03;;;;;;;;;;;;;;;;;;6346353;28;20403;-81
2023/09/09 17:50:03;;;;;;;;;;;;;;;;;;6352280;28;19915;-81
2023/09/09 17:53:03;;;;;;;;;;;;;;;;;;6349515;28;19983;-81
2023/09/09 17:56:03;;;;;;;;;;;;;;;;;;6360838;28;20466;-81
2023/09/09 17:59:04;;;;;;;;;;;;;;;;;;6370667;28;19919;-81
2023/09/09 18:02:04;;;;;;;;;;;;;;;;;;6341084;28;19912;-81
2023/09/09 18:05:04;;;;;;;;;;;;;;;;;;6360622;28;19916;-81
2023/09/09 18:08:04;;;;;;;;;;;;;;;;;;6334041;28;20326;-81
2023/09/09 18:11:04;;;;;;;;;;;;;;;;;;6363569;28;20334;-81
2023/09/09 18:14:04;;;;;;;;;;;;;;;;;;6007828;28;10000243;-82
2023/09/09 18:17:06;;;;;;;;;;;;;;;;;;6348782;27;20358;-81
2023/09/09 18:20:07;;;;;;;;;;;;;;;;;;6363151;27;19922;-82
2023/09/09 18:23:07;;;;;;;;;;;;;;;;;;6354869;27;19915;-81
2023/09/09 18:26:07;;;;;;;;;;;;;;;;;;6353843;27;20412;-81
2023/09/09 18:29:08;;;;;;;;;;;;;;;;;;6368933;27;20021;-82
2023/09/09 18:32:08;;;;;;;;;;;;;;;;;;6365872;27;20044;-82
2023/09/09 18:35:09;;;;;;;;;;;;;;;;;;6374937;27;20021;-82
2023/09/09 18:38:09;;;;;;;;;;;;;;;;;;6373669;27;19916;-83
2023/09/09 18:41:10;;;;;;;;;;;;;;;;;;6354190;27;19921;-82
2023/09/09 18:44:10;;;;;;;;;;;;;;;;;;6373016;27;19925;-84
2023/09/09 18:47:10;;;;;;;;;;;;;;;;;;6345809;27;19915;-83
2023/09/09 18:50:10;;;;;;;;;;;;;;;;;;6371902;27;19973;-84
2023/09/09 18:53:10;;;;;;;;;;;;;;;;;;6351626;27;19962;-83
2023/09/09 18:56:10;;;;;;;;;;;;;;;;;;6356162;27;19970;-83
2023/09/09 18:59:10;;;;;;;;;;;;;;;;;;6360840;27;20467;-83
2023/09/09 19:02:10;;;;;;;;;;;;;;;;;;6364405;27;20460;-84
2023/09/09 19:05:12;;;;;;;;;;;;;;;;;;6366387;27;20341;-83
2023/09/09 19:08:13;;;;;;;;;;;;;;;;;;6364240;27;20270;-83
2023/09/09 19:11:13;;;;;;;;;;;;;;;;;;6370476;27;19918;-82
2023/09/09 19:14:13;;;;;;;;;;;;;;;;;;5999336;27;9999643;-83
2023/09/09 19:17:14;;;;;;;;;;;;;;;;;;6360596;27;20018;-82
2023/09/09 19:20:14;;;;;;;;;;;;;;;;;;6340652;27;20127;-83
2023/09/09 19:23:14;;;;;;;;;;;;;;;;;;6368403;27;19916;-83
2023/09/09 19:26:14;;;;;;;;;;;;;;;;;;6356147;27;20014;-82
2023/09/09 19:29:15;;;;;;;;;;;;;;;;;;6371611;27;19915;-82
2023/09/09 19:32:15;;;;;;;;;;;;;;;;;;6353028;27;19912;-83
2023/09/09 19:35:17;;;;;;;;;;;;;;;;;;6332253;27;19915;-82
2023/09/09 19:38:21;;;;;;;;;;;;;;;;;;6374324;27;19911;-82
2023/09/09 19:41:21;;;;;;;;;;;;;;;;;;6390435;27;19974;-83
2023/09/09 19:44:21;;;;;;;;;;;;;;;;;;6358593;27;19922;-83
2023/09/09 19:47:21;;;;;;;;;;;;;;;;;;6353727;27;20140;-82
2023/09/09 19:50:21;;;;;;;;;;;;;;;;;;6340196;27;19919;-81
2023/09/09 19:53:22;;;;;;;;;;;;;;;;;;6351978;27;19911;-82
2023/09/09 19:56:22;;;;;;;;;;;;;;;;;;6358915;27;19919;-85
2023/09/09 19:59:22;;;;;;;;;;;;;;;;;;6366392;27;20004;-84
2023/09/09 20:02:23;;;;;;;;;;;;;;;;;;6354302;27;19915;-85
2023/09/09 20:05:24;;;;;;;;;;;;;;;;;;6341488;27;20037;-84
2023/09/09 20:08:24;;;;;;;;;;;;;;;;;;6372810;27;19915;-83
2023/09/09 20:11:25;;;;;;;;;;;;;;;;;;6354446;27;19915;-83
2023/09/09 20:14:25;;;;;;;;;;;;;;;;;;6346253;28;19972;-84
2023/09/09 20:17:26;;;;;;;;;;;;;;;;;;6367411;27;19918;-82
2023/09/09 20:20:26;;;;;;;;;;;;;;;;;;6356236;27;19916;-83
2023/09/09 20:23:27;;;;;;;;;;;;;;;;;;6347971;27;19939;-83
2023/09/09 20:26:29;;;;;;;;;;;;;;;;;;6327948;28;20395;-85
2023/09/09 20:29:30;;;;;;;;;;;;;;;;;;6348832;27;19923;-81